Time;durP1;ratioP1;P1;durP2;ratioP2;P2;SDS_P1;SDS_P2;PMS_P1;PMS_P2;Temp;Humidity;BMP_temperature;BMP_pressure;BME280_temperature;BME280_humidity;BME280_pressure;Samples;Min_cycle;Max_cycle;Signal;HPM_P1;HPM_P2
2023/09/20 00:00:29;;;;;;;6.10;1.88;;;;;;;;;;5048981;28;20460;-57
2023/09/20 00:02:54;;;;;;;7.03;1.87;;;;;;;;;;5050042;28;20386;-57
2023/09/20 00:05:21;;;;;;;6.82;1.80;;;;;;;;;;5049592;28;20420;-57
2023/09/20 00:07:47;;;;;;;7.85;2.00;;;;;;;;;;5049140;28;20393;-57
2023/09/20 00:10:14;;;;;;;8.63;2.03;;;;;;;;;;5049562;28;20818;-57
2023/09/20 00:12:40;;;;;;;5.80;1.83;;;;;;;;;;5050019;28;20474;-57
2023/09/20 00:15:07;;;;;;;7.80;1.90;;;;;;;;;;5048624;28;20892;-57
2023/09/20 00:17:34;;;;;;;6.88;1.83;;;;;;;;;;5049907;28;20885;-57
2023/09/20 00:20:06;;;;;;;6.53;1.70;;;;;;;;;;5049882;28;20416;-57
2023/09/20 00:22:31;;;;;;;7.87;1.80;;;;;;;;;;5048679;28;20869;-57
2023/09/20 00:24:58;;;;;;;6.70;1.95;;;;;;;;;;5049749;28;20386;-57
2023/09/20 00:27:24;;;;;;;5.23;1.50;;;;;;;;;;5049338;28;20874;-57
2023/09/20 00:29:49;;;;;;;6.07;1.70;;;;;;;;;;5049320;28;20451;-57
2023/09/20 00:32:14;;;;;;;8.87;2.73;;;;;;;;;;5044924;28;20435;-57
2023/09/20 00:34:39;;;;;;;7.27;1.70;;;;;;;;;;5047541;28;20449;-57
2023/09/20 00:37:05;;;;;;;6.30;1.77;;;;;;;;;;5044940;28;20414;-57
2023/09/20 00:39:30;;;;;;;6.23;2.07;;;;;;;;;;5045136;28;20409;-57
2023/09/20 00:41:57;;;;;;;7.03;1.83;;;;;;;;;;5046836;28;20483;-57
2023/09/20 00:44:22;;;;;;;7.90;2.00;;;;;;;;;;5045604;28;20398;-57
2023/09/20 00:46:47;;;;;;;7.40;1.80;;;;;;;;;;5044225;28;20447;-57
2023/09/20 00:49:12;;;;;;;6.40;1.90;;;;;;;;;;5045514;28;20413;-57
2023/09/20 00:51:38;;;;;;;5.87;1.70;;;;;;;;;;5046928;28;20401;-57
2023/09/20 00:54:04;;;;;;;7.73;1.93;;;;;;;;;;5043055;28;20414;-57
2023/09/20 00:56:29;;;;;;;7.50;1.85;;;;;;;;;;5044899;28;20420;-57
2023/09/20 00:58:55;;;;;;;7.20;1.97;;;;;;;;;;5047769;28;20409;-56
2023/09/20 01:01:20;;;;;;;8.60;1.93;;;;;;;;;;5049334;28;20393;-57
2023/09/20 01:03:46;;;;;;;9.13;2.03;;;;;;;;;;5046767;28;20409;-57
2023/09/20 01:06:14;;;;;;;9.17;2.30;;;;;;;;;;5049815;28;20788;-57
2023/09/20 01:08:40;;;;;;;8.57;2.05;;;;;;;;;;5048526;28;20406;-57
2023/09/20 01:11:05;;;;;;;7.07;2.30;;;;;;;;;;5046746;28;21175;-57
2023/09/20 01:13:30;;;;;;;6.27;2.10;;;;;;;;;;5050186;28;21086;-57
2023/09/20 01:15:55;;;;;;;6.90;2.00;;;;;;;;;;5050136;28;20436;-57
2023/09/20 01:18:21;;;;;;;7.50;2.07;;;;;;;;;;5047960;28;20390;-57
2023/09/20 01:20:47;;;;;;;8.07;2.20;;;;;;;;;;5048805;28;20488;-57
2023/09/20 01:23:13;;;;;;;7.17;2.10;;;;;;;;;;5049470;28;20397;-57
2023/09/20 01:25:39;;;;;;;6.60;2.10;;;;;;;;;;5048321;28;20409;-57
2023/09/20 01:28:06;;;;;;;8.18;2.30;;;;;;;;;;5047297;28;20408;-57
2023/09/20 01:30:32;;;;;;;6.75;2.17;;;;;;;;;;5049513;28;21025;-57
2023/09/20 01:32:58;;;;;;;8.13;2.13;;;;;;;;;;5049333;28;20397;-57
2023/09/20 01:38:26;;;;;;;7.15;2.10;;;;;;;;;;5046157;28;20447;-57
2023/09/20 01:40:55;;;;;;;7.23;1.80;;;;;;;;;;5049336;28;20472;-57
2023/09/20 01:43:21;;;;;;;7.15;2.00;;;;;;;;;;5048864;28;20372;-57
2023/09/20 01:45:47;;;;;;;7.83;2.07;;;;;;;;;;5047479;28;20451;-57
2023/09/20 01:48:12;;;;;;;8.00;2.25;;;;;;;;;;5048173;28;20484;-57
2023/09/20 01:50:38;;;;;;;8.00;2.05;;;;;;;;;;5049206;28;20506;-57
2023/09/20 01:53:10;;;;;;;8.73;2.40;;;;;;;;;;5047927;28;20432;-58
2023/09/20 01:55:37;;;;;;;7.63;2.27;;;;;;;;;;5047279;28;20461;-57
2023/09/20 01:58:06;;;;;;;5.93;1.77;;;;;;;;;;5048858;28;20483;-57
2023/09/20 02:00:36;;;;;;;7.85;2.40;;;;;;;;;;5048350;28;20429;-57
2023/09/20 02:03:05;;;;;;;8.70;2.70;;;;;;;;;;5047188;28;20401;-57
2023/09/20 02:05:31;;;;;;;7.37;2.30;;;;;;;;;;5048033;28;20792;-57
2023/09/20 02:07:57;;;;;;;7.57;2.45;;;;;;;;;;5048706;28;20405;-57
2023/09/20 02:10:23;;;;;;;7.50;2.40;;;;;;;;;;5047068;28;20377;-57
2023/09/20 02:12:49;;;;;;;5.37;1.93;;;;;;;;;;5047089;28;20953;-57
2023/09/20 02:15:14;;;;;;;7.47;2.00;;;;;;;;;;5047594;28;20410;-57
2023/09/20 02:17:40;;;;;;;7.63;2.03;;;;;;;;;;5049205;28;20404;-57
2023/09/20 02:20:12;;;;;;;6.40;1.90;;;;;;;;;;5046229;28;20413;-57
2023/09/20 02:22:38;;;;;;;6.43;2.00;;;;;;;;;;5047953;28;20421;-57
2023/09/20 02:25:05;;;;;;;8.20;2.27;;;;;;;;;;5048421;28;21204;-57
2023/09/20 02:27:30;;;;;;;9.20;2.53;;;;;;;;;;5038439;28;20407;-57
2023/09/20 02:29:56;;;;;;;6.80;2.20;;;;;;;;;;5026374;28;20414;-57
2023/09/20 02:32:21;;;;;;;7.87;2.10;;;;;;;;;;5025281;28;20497;-57
2023/09/20 02:34:46;;;;;;;7.47;2.10;;;;;;;;;;5024267;28;20762;-57
2023/09/20 02:37:12;;;;;;;9.03;2.40;;;;;;;;;;5021124;28;20413;-57
2023/09/20 02:39:37;;;;;;;7.10;2.03;;;;;;;;;;5018659;28;20413;-57
2023/09/20 02:42:02;;;;;;;7.67;2.07;;;;;;;;;;5017726;28;21011;-57
2023/09/20 02:44:28;;;;;;;5.43;2.03;;;;;;;;;;5030592;28;20447;-58
2023/09/20 02:46:53;;;;;;;5.77;1.70;;;;;;;;;;5030549;28;20433;-57
2023/09/20 02:49:20;;;;;;;5.63;1.95;;;;;;;;;;5024994;28;20999;-57
2023/09/20 02:51:47;;;;;;;6.22;1.90;;;;;;;;;;5026045;28;20395;-57
2023/09/20 02:54:12;;;;;;;6.20;1.80;;;;;;;;;;5026910;28;20429;-57
2023/09/20 02:56:38;;;;;;;6.07;1.90;;;;;;;;;;5025656;28;20487;-57
2023/09/20 02:59:07;;;;;;;5.87;1.83;;;;;;;;;;5019078;28;20443;-57
2023/09/20 03:01:33;;;;;;;7.80;2.47;;;;;;;;;;5019792;28;20511;-57
2023/09/20 03:03:58;;;;;;;7.40;2.00;;;;;;;;;;5024414;28;20727;-57
2023/09/20 03:06:23;;;;;;;6.03;2.03;;;;;;;;;;5024033;28;20767;-57
2023/09/20 03:08:49;;;;;;;5.63;1.70;;;;;;;;;;5025551;28;20444;-57
2023/09/20 03:11:19;;;;;;;7.13;1.70;;;;;;;;;;5025567;28;20489;-57
2023/09/20 03:13:45;;;;;;;7.00;2.00;;;;;;;;;;5025186;28;20399;-57
2023/09/20 03:16:15;;;;;;;5.30;1.80;;;;;;;;;;5025892;28;21282;-57
2023/09/20 03:18:40;;;;;;;6.03;2.15;;;;;;;;;;5026671;28;21063;-57
2023/09/20 03:21:06;;;;;;;4.20;1.70;;;;;;;;;;5018945;28;20861;-58
2023/09/20 03:23:31;;;;;;;8.07;2.20;;;;;;;;;;5016463;28;20399;-57
2023/09/20 03:25:58;;;;;;;8.57;2.40;;;;;;;;;;5017863;28;20422;-57
2023/09/20 03:28:24;;;;;;;8.02;1.92;;;;;;;;;;5027443;28;20406;-57
2023/09/20 03:30:51;;;;;;;7.80;2.10;;;;;;;;;;5045173;28;20510;-57
2023/09/20 03:33:20;;;;;;;5.78;2.05;;;;;;;;;;5046408;28;20409;-57
2023/09/20 03:35:46;;;;;;;6.35;1.70;;;;;;;;;;5044976;28;20799;-57
2023/09/20 03:38:12;;;;;;;7.15;1.98;;;;;;;;;;5046486;28;20401;-57
2023/09/20 03:40:41;;;;;;;7.07;1.90;;;;;;;;;;5047354;28;20416;-57
2023/09/20 03:43:08;;;;;;;8.43;1.92;;;;;;;;;;5044577;28;20431;-57
2023/09/20 03:45:33;;;;;;;8.63;1.92;;;;;;;;;;5046142;28;20928;-57
2023/09/20 03:48:01;;;;;;;5.67;2.10;;;;;;;;;;5045955;28;20433;-57
2023/09/20 03:50:26;;;;;;;7.28;2.20;;;;;;;;;;5046395;28;20388;-57
2023/09/20 03:52:52;;;;;;;6.93;1.93;;;;;;;;;;5044897;28;20459;-57
2023/09/20 03:55:17;;;;;;;6.43;2.00;;;;;;;;;;5046884;28;20433;-57
2023/09/20 03:57:43;;;;;;;8.37;2.03;;;;;;;;;;5045502;28;20401;-57
2023/09/20 04:00:26;;;;;;;7.33;2.17;;;;;;;;;;5043787;28;20413;-57
2023/09/20 04:02:53;;;;;;;7.35;1.92;;;;;;;;;;5046396;28;20409;-57
2023/09/20 04:05:19;;;;;;;9.40;1.90;;;;;;;;;;5046221;28;20397;-57
2023/09/20 04:07:47;;;;;;;5.80;2.00;;;;;;;;;;5046611;28;20405;-57
2023/09/20 04:10:13;;;;;;;6.25;1.92;;;;;;;;;;5044367;28;20880;-57
2023/09/20 04:12:39;;;;;;;5.50;1.70;;;;;;;;;;5046919;28;20416;-57
2023/09/20 04:15:04;;;;;;;6.75;2.20;;;;;;;;;;5046268;28;20389;-57
2023/09/20 04:17:31;;;;;;;6.07;1.90;;;;;;;;;;5045190;28;20482;-57
2023/09/20 04:19:57;;;;;;;6.72;2.08;;;;;;;;;;5046110;28;20421;-57
2023/09/20 04:22:22;;;;;;;6.60;2.17;;;;;;;;;;5046258;28;20412;-57
2023/09/20 04:24:47;;;;;;;6.03;1.97;;;;;;;;;;5045774;28;20417;-57
2023/09/20 04:27:12;;;;;;;8.17;2.50;;;;;;;;;;5044200;28;20397;-57
2023/09/20 04:29:37;;;;;;;7.50;2.10;;;;;;;;;;5046604;28;20901;-57
2023/09/20 04:32:04;;;;;;;9.63;2.30;;;;;;;;;;5046317;28;20401;-57
2023/09/20 04:34:29;;;;;;;6.30;2.05;;;;;;;;;;5047279;28;20415;-57
2023/09/20 04:36:54;;;;;;;7.73;2.10;;;;;;;;;;5050993;28;20390;-57
2023/09/20 04:39:20;;;;;;;10.07;2.30;;;;;;;;;;5050217;28;20397;-57
2023/09/20 04:41:45;;;;;;;8.02;2.10;;;;;;;;;;5048387;28;20542;-57
2023/09/20 04:44:11;;;;;;;8.47;2.23;;;;;;;;;;5049393;28;20409;-57
2023/09/20 04:46:36;;;;;;;10.17;2.23;;;;;;;;;;5050653;28;20485;-57
2023/09/20 04:49:02;;;;;;;9.47;2.40;;;;;;;;;;5048981;28;20412;-57
2023/09/20 04:51:28;;;;;;;6.87;2.17;;;;;;;;;;5048615;28;20404;-57
2023/09/20 04:53:55;;;;;;;8.00;2.00;;;;;;;;;;5044522;28;20425;-57
2023/09/20 04:56:20;;;;;;;7.28;2.00;;;;;;;;;;5027512;28;20370;-57
2023/09/20 04:58:45;;;;;;;7.10;2.00;;;;;;;;;;5030726;28;20417;-57
2023/09/20 05:01:11;;;;;;;6.63;2.00;;;;;;;;;;5034583;28;20411;-57
2023/09/20 05:03:36;;;;;;;8.77;2.17;;;;;;;;;;5027808;28;20404;-57
2023/09/20 05:06:01;;;;;;;6.77;2.20;;;;;;;;;;5029200;28;20407;-58
2023/09/20 05:08:26;;;;;;;9.30;2.73;;;;;;;;;;5023186;28;20417;-57
2023/09/20 05:10:52;;;;;;;6.53;2.00;;;;;;;;;;5019348;28;20435;-57
2023/09/20 05:13:17;;;;;;;8.00;2.50;;;;;;;;;;5019114;28;20407;-57
2023/09/20 05:15:42;;;;;;;9.37;2.40;;;;;;;;;;5027170;28;20412;-57
2023/09/20 05:18:08;;;;;;;9.13;2.50;;;;;;;;;;5027397;28;20406;-57
2023/09/20 05:20:33;;;;;;;7.72;2.47;;;;;;;;;;5027113;28;20932;-57
2023/09/20 05:23:00;;;;;;;5.80;2.05;;;;;;;;;;5029492;28;20403;-57
2023/09/20 05:25:26;;;;;;;9.13;2.72;;;;;;;;;;5032854;28;20397;-57
2023/09/20 05:27:54;;;;;;;6.73;2.20;;;;;;;;;;5027345;28;21177;-57
2023/09/20 05:30:19;;;;;;;10.93;2.30;;;;;;;;;;5025107;28;20457;-57
2023/09/20 05:32:46;;;;;;;6.17;2.10;;;;;;;;;;5020748;28;20972;-57
2023/09/20 05:35:12;;;;;;;7.40;2.05;;;;;;;;;;5018075;28;20399;-57
2023/09/20 05:37:39;;;;;;;7.67;2.03;;;;;;;;;;5021260;28;20461;-57
2023/09/20 05:40:06;;;;;;;7.13;2.23;;;;;;;;;;5028423;28;20404;-57
2023/09/20 05:42:32;;;;;;;8.25;2.20;;;;;;;;;;5028019;28;20401;-57
2023/09/20 05:44:57;;;;;;;7.73;2.23;;;;;;;;;;5024903;28;20403;-57
2023/09/20 05:47:23;;;;;;;7.00;2.47;;;;;;;;;;5028176;28;20395;-57
2023/09/20 05:49:49;;;;;;;8.73;2.05;;;;;;;;;;5028551;28;20403;-57
2023/09/20 05:52:15;;;;;;;7.60;2.43;;;;;;;;;;5025203;28;20493;-57
2023/09/20 05:54:42;;;;;;;7.25;2.25;;;;;;;;;;5019805;28;20464;-57
2023/09/20 05:57:07;;;;;;;7.33;2.37;;;;;;;;;;5020486;28;20413;-57
2023/09/20 05:59:33;;;;;;;7.68;2.50;;;;;;;;;;5019341;28;20411;-57
2023/09/20 06:01:58;;;;;;;7.60;2.17;;;;;;;;;;5026734;28;20819;-57
2023/09/20 06:04:24;;;;;;;6.97;2.17;;;;;;;;;;5029279;28;20401;-57
2023/09/20 06:06:50;;;;;;;5.87;1.97;;;;;;;;;;5027143;28;20407;-57
2023/09/20 06:09:15;;;;;;;6.13;2.10;;;;;;;;;;5026369;28;20413;-57
2023/09/20 06:11:40;;;;;;;7.37;1.90;;;;;;;;;;5028582;28;20921;-57
2023/09/20 06:14:06;;;;;;;8.30;2.37;;;;;;;;;;5025684;28;20414;-57
2023/09/20 06:16:31;;;;;;;7.47;2.40;;;;;;;;;;5017906;28;20643;-57
2023/09/20 06:18:56;;;;;;;6.27;2.00;;;;;;;;;;5016015;28;20402;-57
2023/09/20 06:21:23;;;;;;;8.13;2.23;;;;;;;;;;5017605;28;20398;-57
2023/09/20 06:23:49;;;;;;;5.25;1.80;;;;;;;;;;5026116;28;20474;-57
2023/09/20 06:26:14;;;;;;;6.33;1.87;;;;;;;;;;5025858;28;20959;-57
2023/09/20 06:28:41;;;;;;;6.37;2.00;;;;;;;;;;5025536;28;20407;-57
2023/09/20 06:31:07;;;;;;;6.40;2.10;;;;;;;;;;5026518;28;20415;-58
2023/09/20 06:33:32;;;;;;;7.37;2.30;;;;;;;;;;5026077;28;20999;-57
2023/09/20 06:35:59;;;;;;;7.03;1.90;;;;;;;;;;5025885;28;20399;-57
2023/09/20 06:38:24;;;;;;;6.85;2.15;;;;;;;;;;5025197;28;20402;-57
2023/09/20 06:40:51;;;;;;;7.50;2.10;;;;;;;;;;5018912;28;20698;-57
2023/09/20 06:43:16;;;;;;;5.63;1.92;;;;;;;;;;5017622;28;21048;-57
2023/09/20 06:45:50;;;;;;;5.30;2.00;;;;;;;;;;5021959;28;20414;-57
2023/09/20 06:48:15;;;;;;;6.47;2.00;;;;;;;;;;5028118;28;20504;-57
2023/09/20 06:50:43;;;;;;;5.67;2.00;;;;;;;;;;5026519;28;20482;-56
2023/09/20 06:53:08;;;;;;;5.68;1.98;;;;;;;;;;5025514;28;20472;-58
2023/09/20 06:55:33;;;;;;;7.47;2.10;;;;;;;;;;5028398;28;20917;-57
2023/09/20 06:57:58;;;;;;;6.07;2.20;;;;;;;;;;5033584;28;20405;-57
2023/09/20 07:00:25;;;;;;;6.97;2.30;;;;;;;;;;5027256;28;20414;-57
2023/09/20 07:02:51;;;;;;;8.53;2.20;;;;;;;;;;5044967;28;20488;-57
2023/09/20 07:05:18;;;;;;;7.13;1.92;;;;;;;;;;5045714;28;20888;-57
2023/09/20 07:07:44;;;;;;;6.37;2.10;;;;;;;;;;5047694;28;20422;-57
2023/09/20 07:10:10;;;;;;;7.63;2.15;;;;;;;;;;5046974;28;20421;-57
2023/09/20 07:12:38;;;;;;;6.47;2.10;;;;;;;;;;5045801;28;20409;-57
2023/09/20 07:15:06;;;;;;;5.47;1.92;;;;;;;;;;5047059;28;20412;-56
2023/09/20 07:17:31;;;;;;;6.32;2.10;;;;;;;;;;5047123;28;20419;-57
2023/09/20 07:19:57;;;;;;;7.20;2.10;;;;;;;;;;5046259;28;20768;-57
2023/09/20 07:22:23;;;;;;;6.70;1.93;;;;;;;;;;5046214;28;20397;-57
2023/09/20 07:24:54;;;;;;;5.03;1.88;;;;;;;;;;5046751;28;20405;-56
2023/09/20 07:27:19;;;;;;;5.05;2.08;;;;;;;;;;5046626;28;20814;-57
2023/09/20 07:29:45;;;;;;;6.47;1.87;;;;;;;;;;5045868;28;20413;-56
2023/09/20 07:32:10;;;;;;;6.93;2.30;;;;;;;;;;5046419;28;21001;-57
2023/09/20 07:34:36;;;;;;;6.60;2.00;;;;;;;;;;5047175;28;20391;-57
2023/09/20 07:37:02;;;;;;;7.33;1.83;;;;;;;;;;5043768;28;20437;-57
2023/09/20 07:39:28;;;;;;;6.00;1.80;;;;;;;;;;5047045;28;20764;-57
2023/09/20 07:41:58;;;;;;;7.30;2.00;;;;;;;;;;5047299;28;20942;-57
2023/09/20 07:44:25;;;;;;;5.28;2.03;;;;;;;;;;5045550;28;20404;-56
2023/09/20 07:46:52;;;;;;;4.72;1.65;;;;;;;;;;5045659;28;20424;-57
2023/09/20 07:49:18;;;;;;;4.45;1.90;;;;;;;;;;5046489;28;20420;-57
2023/09/20 07:51:45;;;;;;;6.13;1.77;;;;;;;;;;5047155;28;20402;-57
2023/09/20 07:54:10;;;;;;;7.22;2.00;;;;;;;;;;5044542;28;20409;-57
2023/09/20 07:56:36;;;;;;;6.78;2.28;;;;;;;;;;5047060;28;20930;-56
2023/09/20 07:59:03;;;;;;;5.55;1.85;;;;;;;;;;5045989;28;20417;-58
2023/09/20 08:01:29;;;;;;;4.13;1.83;;;;;;;;;;5045869;28;20451;-57
2023/09/20 08:03:58;;;;;;;5.38;1.80;;;;;;;;;;5045561;28;20418;-57
2023/09/20 08:06:24;;;;;;;5.00;1.60;;;;;;;;;;5045975;28;20874;-57
2023/09/20 08:08:50;;;;;;;6.47;1.88;;;;;;;;;;5046391;28;20448;-57
2023/09/20 08:11:15;;;;;;;5.53;1.60;;;;;;;;;;5044157;28;20410;-57
2023/09/20 08:13:40;;;;;;;4.77;1.80;;;;;;;;;;5046577;28;21127;-56
2023/09/20 08:16:09;;;;;;;6.10;1.70;;;;;;;;;;5046566;28;20405;-57
2023/09/20 08:21:18;;;;;;;4.20;1.48;;;;;;;;;;5044295;28;20582;-57
2023/09/20 09:02:00;;;;;;;6.22;1.88;;;;;;;;;;5045998;28;20435;-57
2023/09/20 09:04:25;;;;;;;5.00;1.63;;;;;;;;;;5046009;28;20480;-57
2023/09/20 09:06:50;;;;;;;3.83;1.17;;;;;;;;;;5044354;28;20398;-57
2023/09/20 09:09:16;;;;;;;5.10;1.40;;;;;;;;;;5047487;28;20784;-57
2023/09/20 09:11:44;;;;;;;5.28;1.90;;;;;;;;;;5049247;28;20397;-57
2023/09/20 09:14:09;;;;;;;3.88;1.10;;;;;;;;;;5047305;28;20408;-57
2023/09/20 09:16:35;;;;;;;3.58;1.30;;;;;;;;;;5048599;28;20410;-57
2023/09/20 09:19:00;;;;;;;4.28;1.50;;;;;;;;;;5048921;28;20474;-58
2023/09/20 09:21:26;;;;;;;4.97;1.40;;;;;;;;;;5052198;28;20428;-56
2023/09/20 09:23:51;;;;;;;4.88;1.30;;;;;;;;;;5052505;28;20385;-57
2023/09/20 09:26:16;;;;;;;4.47;1.43;;;;;;;;;;5052564;28;20413;-57
2023/09/20 09:28:42;;;;;;;3.77;1.27;;;;;;;;;;5052811;28;20480;-57
2023/09/20 09:31:08;;;;;;;3.40;1.50;;;;;;;;;;5050358;28;20389;-57
2023/09/20 09:33:34;;;;;;;4.22;1.40;;;;;;;;;;5052609;28;20385;-57
2023/09/20 09:35:59;;;;;;;4.10;1.63;;;;;;;;;;5050819;28;21003;-57
2023/09/20 09:38:24;;;;;;;5.60;1.75;;;;;;;;;;5051854;28;20389;-57
2023/09/20 09:40:56;;;;;;;5.10;1.50;;;;;;;;;;5052298;28;20907;-56
2023/09/20 09:43:23;;;;;;;6.10;1.80;;;;;;;;;;5052166;28;20425;-57
2023/09/20 09:45:54;;;;;;;3.90;1.60;;;;;;;;;;5052024;28;20447;-57
2023/09/20 09:48:20;;;;;;;6.65;1.70;;;;;;;;;;5051635;28;20405;-57
2023/09/20 09:50:46;;;;;;;4.83;1.73;;;;;;;;;;5051556;28;20478;-56
2023/09/20 09:53:12;;;;;;;7.43;1.73;;;;;;;;;;5050779;28;20912;-57
2023/09/20 09:55:38;;;;;;;5.40;2.10;;;;;;;;;;5050997;28;20743;-56
2023/09/20 09:58:04;;;;;;;5.30;1.88;;;;;;;;;;5051317;28;20398;-57
2023/09/20 10:00:30;;;;;;;4.87;1.90;;;;;;;;;;5051875;28;20416;-56
2023/09/20 10:02:55;;;;;;;7.53;2.15;;;;;;;;;;5052185;28;20493;-57
2023/09/20 10:05:21;;;;;;;6.20;2.27;;;;;;;;;;5049997;28;20497;-57
2023/09/20 10:07:46;;;;;;;4.73;2.00;;;;;;;;;;5047816;28;20405;-56
2023/09/20 10:10:12;;;;;;;7.57;2.30;;;;;;;;;;5048111;28;20760;-56
2023/09/20 10:12:38;;;;;;;7.00;2.30;;;;;;;;;;5048392;28;20887;-58
2023/09/20 10:15:07;;;;;;;5.00;2.00;;;;;;;;;;5047872;28;20416;-57
2023/09/20 10:17:33;;;;;;;5.77;2.00;;;;;;;;;;5047244;28;20417;-57
2023/09/20 10:19:58;;;;;;;6.72;2.55;;;;;;;;;;5048506;28;20420;-56
2023/09/20 10:22:23;;;;;;;6.07;2.05;;;;;;;;;;5048240;28;20423;-57
2023/09/20 10:24:50;;;;;;;7.60;2.17;;;;;;;;;;5046368;28;20873;-57
2023/09/20 10:27:16;;;;;;;4.85;1.70;;;;;;;;;;5047651;28;20441;-57
2023/09/20 10:29:46;;;;;;;6.00;2.10;;;;;;;;;;5048729;28;20432;-57
2023/09/20 10:32:13;;;;;;;4.53;1.73;;;;;;;;;;5045447;28;20922;-57
2023/09/20 10:34:38;;;;;;;5.28;2.22;;;;;;;;;;5045592;28;20520;-57
2023/09/20 10:37:10;;;;;;;8.10;2.03;;;;;;;;;;5047689;28;20433;-56
2023/09/20 10:39:36;;;;;;;4.72;2.00;;;;;;;;;;5048280;28;20520;-57
2023/09/20 10:42:12;;;;;;;5.20;2.00;;;;;;;;;;5045145;28;20506;-57
2023/09/20 10:44:41;;;;;;;5.22;1.63;;;;;;;;;;5042867;28;20413;-56
2023/09/20 10:47:09;;;;;;;5.15;2.30;;;;;;;;;;5047249;28;20879;-57
2023/09/20 10:49:41;;;;;;;3.83;1.65;;;;;;;;;;5047530;28;20397;-56
2023/09/20 10:52:06;;;;;;;6.07;1.80;;;;;;;;;;5045523;28;20406;-57
2023/09/20 10:54:36;;;;;;;5.77;1.90;;;;;;;;;;5048014;28;20401;-57
2023/09/20 10:57:03;;;;;;;4.60;1.60;;;;;;;;;;5047964;28;20398;-56
2023/09/20 10:59:30;;;;;;;4.55;1.67;;;;;;;;;;5045516;28;20459;-56
2023/09/20 11:01:58;;;;;;;4.47;1.80;;;;;;;;;;5046978;28;20406;-57
2023/09/20 11:04:24;;;;;;;3.67;1.70;;;;;;;;;;5047738;28;20871;-57
2023/09/20 11:06:50;;;;;;;5.53;1.70;;;;;;;;;;5046382;28;20485;-57
2023/09/20 11:09:15;;;;;;;6.23;1.60;;;;;;;;;;5045634;28;20488;-57
2023/09/20 11:11:41;;;;;;;6.00;1.60;;;;;;;;;;5047920;28;20802;-57
2023/09/20 11:14:07;;;;;;;4.15;1.48;;;;;;;;;;5047564;28;20405;-57
2023/09/20 11:16:32;;;;;;;3.97;1.50;;;;;;;;;;5043466;28;20389;-56
2023/09/20 11:18:58;;;;;;;5.37;1.50;;;;;;;;;;5048092;28;20417;-56
2023/09/20 11:21:24;;;;;;;3.87;1.40;;;;;;;;;;5047287;28;20417;-57
2023/09/20 11:23:49;;;;;;;3.42;1.13;;;;;;;;;;5045958;28;20402;-57
2023/09/20 11:26:25;;;;;;;5.43;1.40;;;;;;;;;;5046186;28;20462;-57
2023/09/20 11:28:52;;;;;;;3.92;1.30;;;;;;;;;;5047848;28;20496;-57
2023/09/20 11:31:35;;;;;;;3.58;1.30;;;;;;;;;;5046726;28;20912;-57
2023/09/20 11:34:01;;;;;;;5.10;1.30;;;;;;;;;;5045376;28;20401;-57
2023/09/20 11:36:27;;;;;;;3.35;1.40;;;;;;;;;;5045952;28;21732;-57
2023/09/20 11:38:53;;;;;;;5.60;1.20;;;;;;;;;;5047273;28;20398;-57
2023/09/20 11:41:20;;;;;;;2.92;1.02;;;;;;;;;;5046071;28;20525;-57
2023/09/20 11:43:45;;;;;;;4.22;1.30;;;;;;;;;;5044662;28;20417;-56
2023/09/20 11:46:11;;;;;;;2.53;1.00;;;;;;;;;;5047163;28;20406;-57
2023/09/20 11:48:37;;;;;;;4.47;1.20;;;;;;;;;;5046001;28;20394;-57
2023/09/20 11:51:02;;;;;;;3.28;1.17;;;;;;;;;;5043974;28;20428;-57
2023/09/20 11:53:29;;;;;;;2.03;0.90;;;;;;;;;;5047227;28;20433;-57
2023/09/20 11:55:55;;;;;;;4.07;1.20;;;;;;;;;;5047408;28;20896;-57
2023/09/20 11:58:20;;;;;;;3.20;1.10;;;;;;;;;;5045021;28;20403;-57
2023/09/20 12:00:46;;;;;;;4.90;1.40;;;;;;;;;;5045933;28;20422;-56
2023/09/20 12:03:13;;;;;;;4.25;1.27;;;;;;;;;;5044473;28;21230;-57
2023/09/20 12:05:38;;;;;;;2.17;1.00;;;;;;;;;;5046487;28;20429;-57
2023/09/20 12:08:06;;;;;;;2.63;1.13;;;;;;;;;;5044141;28;20463;-57
2023/09/20 12:10:31;;;;;;;3.95;1.20;;;;;;;;;;5047270;28;20398;-56
2023/09/20 12:12:57;;;;;;;4.03;1.08;;;;;;;;;;5046764;28;20488;-57
2023/09/20 12:15:23;;;;;;;4.50;1.10;;;;;;;;;;5044463;28;20807;-57
2023/09/20 12:17:50;;;;;;;4.15;1.25;;;;;;;;;;5046514;28;20420;-57
2023/09/20 12:20:16;;;;;;;2.97;1.00;;;;;;;;;;5046116;28;20492;-57
2023/09/20 12:22:43;;;;;;;3.23;1.30;;;;;;;;;;5046030;28;20413;-56
2023/09/20 12:25:11;;;;;;;2.92;1.30;;;;;;;;;;5044912;28;20417;-57
2023/09/20 12:27:36;;;;;;;5.28;1.10;;;;;;;;;;5046443;28;20409;-57
2023/09/20 12:30:01;;;;;;;3.00;1.00;;;;;;;;;;5046352;28;20397;-57
2023/09/20 12:32:26;;;;;;;4.87;1.20;;;;;;;;;;5044064;28;20399;-57
2023/09/20 12:34:54;;;;;;;4.47;1.20;;;;;;;;;;5047143;28;20405;-57
2023/09/20 12:37:20;;;;;;;4.38;1.10;;;;;;;;;;5046074;28;20406;-56
2023/09/20 12:39:46;;;;;;;4.97;1.20;;;;;;;;;;5044870;28;20436;-57
2023/09/20 12:42:12;;;;;;;3.55;1.40;;;;;;;;;;5045475;28;20421;-57
2023/09/20 12:44:37;;;;;;;3.53;1.30;;;;;;;;;;5046500;28;20421;-56
2023/09/20 12:47:02;;;;;;;5.40;1.33;;;;;;;;;;5045448;28;20409;-57
2023/09/20 12:49:28;;;;;;;4.90;1.30;;;;;;;;;;5044665;28;20405;-56
2023/09/20 12:51:53;;;;;;;4.47;1.20;;;;;;;;;;5046829;28;20415;-57
2023/09/20 12:54:18;;;;;;;3.93;1.33;;;;;;;;;;5046948;28;20439;-57
2023/09/20 12:56:43;;;;;;;3.80;1.20;;;;;;;;;;5048836;28;20413;-57
2023/09/20 12:59:11;;;;;;;3.63;1.40;;;;;;;;;;5049435;28;21158;-56
2023/09/20 13:01:37;;;;;;;4.90;0.97;;;;;;;;;;5049739;28;20897;-55
2023/09/20 13:04:03;;;;;;;2.95;1.13;;;;;;;;;;5048877;28;20413;-57
2023/09/20 13:06:28;;;;;;;2.60;1.00;;;;;;;;;;5049182;28;20407;-57
2023/09/20 13:08:55;;;;;;;2.83;1.00;;;;;;;;;;5049661;28;20937;-56
2023/09/20 13:11:22;;;;;;;3.33;1.52;;;;;;;;;;5049552;28;20426;-56
2023/09/20 13:13:47;;;;;;;5.22;1.50;;;;;;;;;;5047806;28;20501;-57
2023/09/20 13:16:14;;;;;;;3.87;1.17;;;;;;;;;;5049437;28;20823;-57
2023/09/20 13:18:39;;;;;;;4.23;1.50;;;;;;;;;;5050073;28;21341;-57
2023/09/20 13:21:05;;;;;;;5.60;1.60;;;;;;;;;;5048373;28;20479;-57
2023/09/20 13:23:30;;;;;;;3.43;1.13;;;;;;;;;;5048777;28;20406;-57
2023/09/20 13:25:55;;;;;;;3.60;1.10;;;;;;;;;;5049775;28;20892;-57
2023/09/20 13:28:21;;;;;;;4.60;1.08;;;;;;;;;;5048781;28;20839;-56
2023/09/20 13:30:46;;;;;;;3.60;1.20;;;;;;;;;;5042382;28;21152;-57
2023/09/20 13:33:12;;;;;;;2.63;1.23;;;;;;;;;;5035974;28;20409;-57
2023/09/20 13:35:39;;;;;;;4.65;1.48;;;;;;;;;;5031717;28;20500;-57
2023/09/20 13:38:04;;;;;;;4.13;1.40;;;;;;;;;;5030115;28;20405;-56
2023/09/20 13:40:30;;;;;;;3.63;1.50;;;;;;;;;;5027527;28;20454;-56
2023/09/20 13:42:57;;;;;;;2.40;1.30;;;;;;;;;;5031466;28;20422;-57
2023/09/20 13:45:25;;;;;;;4.82;1.23;;;;;;;;;;5033284;28;20397;-56
2023/09/20 13:47:51;;;;;;;3.45;1.23;;;;;;;;;;5037655;28;20411;-57
2023/09/20 13:50:16;;;;;;;4.43;1.30;;;;;;;;;;5030357;28;20989;-57
2023/09/20 13:52:42;;;;;;;4.17;1.47;;;;;;;;;;5038375;28;20462;-57
2023/09/20 13:55:11;;;;;;;3.88;1.30;;;;;;;;;;5032537;28;20415;-56
2023/09/20 13:57:36;;;;;;;4.05;1.30;;;;;;;;;;5023154;28;20414;-57
2023/09/20 14:00:03;;;;;;;4.97;1.40;;;;;;;;;;5022896;28;20411;-57
2023/09/20 14:02:28;;;;;;;3.90;1.50;;;;;;;;;;5027580;28;20434;-56
2023/09/20 14:04:54;;;;;;;3.50;1.30;;;;;;;;;;5030077;28;20410;-57
2023/09/20 14:07:19;;;;;;;4.13;1.60;;;;;;;;;;5030574;28;20707;-57
2023/09/20 14:09:44;;;;;;;4.43;1.30;;;;;;;;;;5032284;28;20411;-57
2023/09/20 14:12:11;;;;;;;6.43;1.50;;;;;;;;;;5030974;28;20421;-57
2023/09/20 14:14:36;;;;;;;5.45;1.30;;;;;;;;;;5030376;28;20813;-57
2023/09/20 14:17:03;;;;;;;4.43;1.50;;;;;;;;;;5030483;28;20886;-57
2023/09/20 14:19:29;;;;;;;4.15;1.33;;;;;;;;;;5027924;28;21136;-57
2023/09/20 14:21:54;;;;;;;3.30;1.13;;;;;;;;;;5022236;28;20414;-56
2023/09/20 14:24:19;;;;;;;4.07;1.30;;;;;;;;;;5023937;28;21081;-57
2023/09/20 14:26:46;;;;;;;5.07;1.50;;;;;;;;;;5029226;28;20490;-57
2023/09/20 14:29:11;;;;;;;3.25;1.52;;;;;;;;;;5035009;28;20420;-57
2023/09/20 14:31:38;;;;;;;4.93;1.30;;;;;;;;;;5030475;28;20403;-57
2023/09/20 14:34:03;;;;;;;4.53;1.25;;;;;;;;;;5031052;28;20406;-57
2023/09/20 14:36:29;;;;;;;3.40;1.30;;;;;;;;;;5031719;28;20411;-57
2023/09/20 14:38:55;;;;;;;4.10;1.50;;;;;;;;;;5039112;28;21207;-56
2023/09/20 14:41:20;;;;;;;3.72;1.10;;;;;;;;;;5027571;28;20417;-57
2023/09/20 14:43:46;;;;;;;4.53;1.23;;;;;;;;;;5024539;28;20505;-56
2023/09/20 14:46:11;;;;;;;3.77;1.40;;;;;;;;;;5022646;28;20474;-57
2023/09/20 14:48:37;;;;;;;3.20;1.13;;;;;;;;;;5024765;28;20412;-57
2023/09/20 14:51:02;;;;;;;5.93;1.30;;;;;;;;;;5030627;28;20418;-57
2023/09/20 14:53:28;;;;;;;2.97;1.37;;;;;;;;;;5032306;28;20401;-57
2023/09/20 14:55:54;;;;;;;2.47;0.90;;;;;;;;;;5030412;28;20403;-57
2023/09/20 14:58:19;;;;;;;3.85;1.15;;;;;;;;;;5028349;28;20414;-57
2023/09/20 15:00:47;;;;;;;4.37;0.97;;;;;;;;;;5031270;28;20415;-57
2023/09/20 15:03:14;;;;;;;3.30;1.30;;;;;;;;;;5029055;28;20415;-57
2023/09/20 15:05:41;;;;;;;3.00;1.17;;;;;;;;;;5022310;28;20412;-57
2023/09/20 15:08:08;;;;;;;3.60;1.00;;;;;;;;;;5023561;28;20399;-57
2023/09/20 15:10:34;;;;;;;3.73;1.10;;;;;;;;;;5028525;28;20395;-57
2023/09/20 15:13:01;;;;;;;2.90;1.00;;;;;;;;;;5029291;28;20441;-57
2023/09/20 15:15:27;;;;;;;3.35;0.95;;;;;;;;;;5028887;28;20730;-57
2023/09/20 15:17:52;;;;;;;4.63;1.10;;;;;;;;;;5029594;28;20405;-57
2023/09/20 15:20:18;;;;;;;2.92;1.10;;;;;;;;;;5029242;28;20563;-57